Time;durP1;ratioP1;P1;durP2;ratioP2;P2;SDS_P1;SDS_P2;PMS_P1;PMS_P2;Temp;Humidity;BMP_temperature;BMP_pressure;BME280_temperature;BME280_humidity;BME280_pressure;Samples;Min_cycle;Max_cycle;Signal;HPM_P1;HPM_P2
2022/02/02 00:01:16;;;;;;;39.92;19.52;;;;;;;;;;6135578;23;20009;-91
2022/02/02 00:03:48;;;;;;;39.22;19.33;;;;;;;;;;6160285;23;20013;-91
2022/02/02 00:06:21;;;;;;;39.08;18.25;;;;;;;;;;6160631;23;20001;-91
2022/02/02 00:09:03;;;;;;;34.17;17.80;;;;;;;;;;6135100;23;20010;-94
2022/02/02 00:14:12;;;;;;;35.92;17.40;;;;;;;;;;6170416;23;20391;-91
2022/02/02 00:16:56;;;;;;;32.53;16.00;;;;;;;;;;6160019;23;20040;-91
2022/02/02 00:19:58;;;;;;;37.53;18.23;;;;;;;;;;6158600;23;20009;-90
2022/02/02 00:22:32;;;;;;;41.10;18.20;;;;;;;;;;6175864;23;20008;-92
2022/02/02 00:25:08;;;;;;;37.45;17.98;;;;;;;;;;6195619;23;20091;-92
2022/02/02 00:27:37;;;;;;;38.05;17.08;;;;;;;;;;6195539;23;20023;-91
2022/02/02 00:30:05;;;;;;;34.15;16.20;;;;;;;;;;6222366;23;20004;-92
2022/02/02 00:35:40;;;;;;;32.83;16.35;;;;;;;;;;6221901;23;20061;-94
2022/02/02 00:38:06;;;;;;;28.87;15.10;;;;;;;;;;6195444;23;20007;-93
2022/02/02 00:40:32;;;;;;;31.90;16.25;;;;;;;;;;6195871;23;20000;-94
2022/02/02 00:42:58;;;;;;;32.95;15.10;;;;;;;;;;6195664;23;20008;-93
2022/02/02 00:45:31;;;;;;;28.75;14.93;;;;;;;;;;6221408;23;20000;-93
2022/02/02 00:48:01;;;;;;;31.95;15.23;;;;;;;;;;6222069;23;20039;-93
2022/02/02 00:50:27;;;;;;;29.52;15.27;;;;;;;;;;6195405;23;20017;-93
2022/02/02 00:52:54;;;;;;;31.35;15.13;;;;;;;;;;6221715;23;20007;-93
2022/02/02 00:55:20;;;;;;;32.28;15.02;;;;;;;;;;6221933;23;19996;-93
2022/02/02 00:57:46;;;;;;;31.73;14.63;;;;;;;;;;6221926;23;20264;-93
2022/02/02 01:00:13;;;;;;;27.33;13.20;;;;;;;;;;6221630;23;20007;-92
2022/02/02 01:02:39;;;;;;;29.05;13.98;;;;;;;;;;6221824;23;20000;-92
2022/02/02 01:05:06;;;;;;;31.67;14.48;;;;;;;;;;6195837;23;20007;-91
2022/02/02 01:10:09;;;;;;;29.23;13.98;;;;;;;;;;6231577;23;20104;-93
2022/02/02 01:12:46;;;;;;;31.52;14.00;;;;;;;;;;6221772;23;20004;-93
2022/02/02 01:28:23;;;;;;;23.13;11.25;;;;;;;;;;6221353;23;20065;-92
2022/02/02 01:30:49;;;;;;;29.73;12.20;;;;;;;;;;6195030;23;20007;-93
2022/02/02 01:33:15;;;;;;;29.23;12.13;;;;;;;;;;6195240;23;20008;-92
2022/02/02 01:35:43;;;;;;;26.05;11.93;;;;;;;;;;6221602;23;20007;-93
2022/02/02 01:38:09;;;;;;;30.58;11.38;;;;;;;;;;6221264;23;19997;-92
2022/02/02 01:40:43;;;;;;;22.60;9.88;;;;;;;;;;6221031;23;20072;-92
2022/02/02 01:43:22;;;;;;;24.02;10.75;;;;;;;;;;6194986;23;20008;-92
2022/02/02 01:45:57;;;;;;;22.33;9.65;;;;;;;;;;6195142;23;20011;-92
2022/02/02 01:48:40;;;;;;;29.13;9.73;;;;;;;;;;6221692;23;20020;-91
2022/02/02 01:53:54;;;;;;;23.50;9.82;;;;;;;;;;6231721;23;20012;-91
2022/02/02 01:56:21;;;;;;;21.42;10.10;;;;;;;;;;6221294;23;20241;-93
2022/02/02 01:59:00;;;;;;;19.52;10.45;;;;;;;;;;6221130;23;20382;-92
2022/02/02 02:01:30;;;;;;;20.38;10.60;;;;;;;;;;6221173;23;20001;-91
2022/02/02 02:03:59;;;;;;;24.48;9.95;;;;;;;;;;6221484;23;20001;-91
2022/02/02 02:06:26;;;;;;;25.08;10.60;;;;;;;;;;6221181;23;20386;-92
2022/02/02 02:08:53;;;;;;;19.88;10.00;;;;;;;;;;6194733;23;20008;-91
2022/02/02 02:11:21;;;;;;;19.35;10.02;;;;;;;;;;6194882;23;20091;-92
2022/02/02 02:16:32;;;;;;;23.42;10.27;;;;;;;;;;6221113;23;20395;-91
2022/02/02 02:18:59;;;;;;;19.27;10.20;;;;;;;;;;6221334;23;20001;-93
2022/02/02 02:21:26;;;;;;;20.60;10.45;;;;;;;;;;6221164;23;19993;-93
2022/02/02 02:23:52;;;;;;;21.10;10.70;;;;;;;;;;6221067;23;20008;-92
2022/02/02 02:26:23;;;;;;;22.90;10.48;;;;;;;;;;6221153;23;20092;-92
2022/02/02 02:31:27;;;;;;;21.80;10.82;;;;;;;;;;6230978;23;20047;-92
2022/02/02 02:34:13;;;;;;;26.73;11.30;;;;;;;;;;6194660;23;20008;-91
2022/02/02 02:37:03;;;;;;;26.05;12.23;;;;;;;;;;6220899;23;20000;-91
2022/02/02 03:01:16;;;;;;;23.10;11.75;;;;;;;;;;6232973;23;20004;-92
2022/02/02 03:56:02;;;;;;;28.30;13.60;;;;;;;;;;6139819;23;20057;-93
2022/02/02 04:06:04;;;;;;;31.95;13.82;;;;;;;;;;6140857;23;20408;-93
2022/02/02 04:08:34;;;;;;;28.80;13.77;;;;;;;;;;6130707;23;20308;-93
2022/02/02 04:11:04;;;;;;;24.48;12.65;;;;;;;;;;6146570;23;20011;-93
2022/02/02 04:52:10;;;;;;;16.75;9.45;;;;;;;;;;6072772;23;20081;-91
2022/02/02 04:58:01;;;;;;;15.18;7.95;;;;;;;;;;6102109;23;20107;-90
2022/02/02 05:16:40;;;;;;;21.67;11.85;;;;;;;;;;6100852;23;20352;-92
2022/02/02 05:52:18;;;;;;;143.32;50.03;;;;;;;;;;6081809;23;20367;-91
2022/02/02 05:54:44;;;;;;;96.10;39.67;;;;;;;;;;6071718;23;20382;-90
2022/02/02 05:57:14;;;;;;;90.28;37.30;;;;;;;;;;6047974;23;20096;-91
2022/02/02 05:59:41;;;;;;;77.43;33.47;;;;;;;;;;6047642;23;20060;-91
2022/02/02 06:02:10;;;;;;;49.40;24.02;;;;;;;;;;6121015;23;20156;-91
2022/02/02 06:04:42;;;;;;;51.47;23.33;;;;;;;;;;6191270;23;20001;-91
2022/02/02 06:07:09;;;;;;;40.40;21.02;;;;;;;;;;6190851;23;19997;-92
2022/02/02 06:09:38;;;;;;;41.60;20.80;;;;;;;;;;6190901;23;20379;-92
2022/02/02 06:12:06;;;;;;;34.28;17.23;;;;;;;;;;6191062;23;20016;-90
2022/02/02 06:14:32;;;;;;;31.45;15.60;;;;;;;;;;6190408;23;20001;-91
2022/02/02 06:17:06;;;;;;;23.27;13.10;;;;;;;;;;6191137;23;20001;-91
2022/02/02 06:19:52;;;;;;;31.48;16.90;;;;;;;;;;6189642;23;20012;-91
2022/02/02 06:22:19;;;;;;;28.15;15.20;;;;;;;;;;6190781;23;20001;-92
2022/02/02 06:24:49;;;;;;;27.08;13.70;;;;;;;;;;6191510;23;20012;-92
2022/02/02 06:27:27;;;;;;;29.75;15.77;;;;;;;;;;6212591;23;20012;-91
2022/02/02 06:30:08;;;;;;;45.50;20.25;;;;;;;;;;6194402;23;20040;-91
2022/02/02 06:32:40;;;;;;;40.95;18.88;;;;;;;;;;6194545;23;20096;-92
2022/02/02 06:35:07;;;;;;;36.75;18.63;;;;;;;;;;6220832;23;20312;-92
2022/02/02 06:37:33;;;;;;;49.25;25.67;;;;;;;;;;6194821;23;20019;-92
2022/02/02 06:39:59;;;;;;;65.10;32.13;;;;;;;;;;6220858;23;20023;-93
2022/02/02 06:42:25;;;;;;;62.17;32.20;;;;;;;;;;6221027;23;20251;-91
2022/02/02 06:44:53;;;;;;;56.90;29.33;;;;;;;;;;6221259;23;20004;-91
2022/02/02 06:47:19;;;;;;;44.58;20.08;;;;;;;;;;6220775;23;19997;-91
2022/02/02 06:49:48;;;;;;;42.85;21.40;;;;;;;;;;6194568;23;20011;-92
2022/02/02 06:52:19;;;;;;;35.80;17.27;;;;;;;;;;6220763;23;20024;-92
2022/02/02 06:54:54;;;;;;;38.33;19.88;;;;;;;;;;6194604;23;20001;-93
2022/02/02 06:57:33;;;;;;;48.97;25.98;;;;;;;;;;6194682;23;20088;-92
2022/02/02 07:00:11;;;;;;;49.28;24.05;;;;;;;;;;6221084;23;20075;-93
2022/02/02 07:11:01;;;;;;;47.28;23.40;;;;;;;;;;6231126;23;20018;-91
2022/02/02 07:29:19;;;;;;;44.88;22.52;;;;;;;;;;6232949;23;20016;-91
2022/02/02 07:31:57;;;;;;;57.90;28.02;;;;;;;;;;6184542;23;20004;-91
2022/02/02 07:37:38;;;;;;;55.38;27.35;;;;;;;;;;6222663;23;20027;-92
2022/02/02 07:40:09;;;;;;;50.20;25.20;;;;;;;;;;6222519;23;20363;-92
2022/02/02 07:42:40;;;;;;;89.82;32.58;;;;;;;;;;6195543;23;20051;-91
2022/02/02 07:45:09;;;;;;;170.63;45.03;;;;;;;;;;6222101;23;20080;-92
2022/02/02 07:47:38;;;;;;;258.58;67.72;;;;;;;;;;6222022;23;20072;-92
2022/02/02 07:50:05;;;;;;;144.48;46.08;;;;;;;;;;6222425;23;20001;-92
2022/02/02 07:52:32;;;;;;;166.23;49.05;;;;;;;;;;6222321;23;20004;-91
2022/02/02 07:55:01;;;;;;;69.68;27.95;;;;;;;;;;6196177;23;20005;-92
2022/02/02 07:57:28;;;;;;;64.18;29.60;;;;;;;;;;6196093;23;20009;-91
2022/02/02 07:59:58;;;;;;;81.13;34.85;;;;;;;;;;6222800;23;20001;-91
2022/02/02 08:02:35;;;;;;;97.63;41.45;;;;;;;;;;6222228;23;20008;-92
2022/02/02 08:10:51;;;;;;;99.43;33.80;;;;;;;;;;6232711;23;20013;-92
2022/02/02 08:13:22;;;;;;;121.30;43.08;;;;;;;;;;6222249;23;20008;-91
2022/02/02 08:15:59;;;;;;;90.82;37.55;;;;;;;;;;6222332;23;19992;-91
2022/02/02 08:18:25;;;;;;;54.33;26.15;;;;;;;;;;6196296;23;20008;-91
2022/02/02 08:23:55;;;;;;;57.63;27.42;;;;;;;;;;6221838;23;20174;-91
2022/02/02 08:26:21;;;;;;;51.20;26.42;;;;;;;;;;6195482;23;20024;-91
2022/02/02 08:28:49;;;;;;;54.80;27.15;;;;;;;;;;6221969;23;20003;-92
2022/02/02 08:31:15;;;;;;;92.15;32.60;;;;;;;;;;6222133;23;20008;-91
2022/02/02 08:33:46;;;;;;;184.85;49.38;;;;;;;;;;6221812;23;20088;-93
2022/02/02 08:36:15;;;;;;;171.07;47.05;;;;;;;;;;6195832;23;19997;-93
2022/02/02 08:41:16;;;;;;;154.82;41.50;;;;;;;;;;6232265;23;20256;-91
2022/02/02 08:43:53;;;;;;;100.47;33.13;;;;;;;;;;6222109;23;20005;-92
2022/02/02 08:46:39;;;;;;;98.78;32.00;;;;;;;;;;6195671;23;20259;-92
2022/02/02 08:49:09;;;;;;;95.43;33.42;;;;;;;;;;6221520;23;20005;-92
2022/02/02 08:51:40;;;;;;;99.63;37.40;;;;;;;;;;6195369;23;20008;-93
2022/02/02 09:01:43;;;;;;;62.33;28.02;;;;;;;;;;6231655;23;20019;-93
2022/02/02 09:06:57;;;;;;;79.72;34.22;;;;;;;;;;6221323;23;20023;-92
2022/02/02 09:09:42;;;;;;;80.43;31.23;;;;;;;;;;6222988;23;20012;-96
2022/02/02 09:25:44;;;;;;;72.35;27.85;;;;;;;;;;6234011;23;20020;-94
2022/02/02 09:33:53;;;;;;;92.43;34.50;;;;;;;;;;6224291;23;20035;-96
2022/02/02 09:36:44;;;;;;;75.82;31.50;;;;;;;;;;6223919;23;20000;-95
2022/02/02 09:39:29;;;;;;;52.33;24.92;;;;;;;;;;6224303;23;20080;-94
2022/02/02 09:42:06;;;;;;;86.25;38.47;;;;;;;;;;6198962;23;20295;-95
2022/02/02 09:44:39;;;;;;;87.93;40.20;;;;;;;;;;6198506;23;20250;-95
2022/02/02 09:47:20;;;;;;;89.22;34.38;;;;;;;;;;6195945;23;20375;-95
2022/02/02 09:50:31;;;;;;;94.28;34.90;;;;;;;;;;6221651;23;20009;-95
2022/02/02 09:53:01;;;;;;;152.68;50.10;;;;;;;;;;6221492;23;20011;-93
2022/02/02 09:59:00;;;;;;;143.95;51.53;;;;;;;;;;6072681;23;20031;-95
2022/02/02 10:07:26;;;;;;;96.40;38.78;;;;;;;;;;6072069;23;20034;-95
2022/02/02 10:15:26;;;;;;;34.80;18.63;;;;;;;;;;6077352;23;20021;-95
2022/02/02 10:18:04;;;;;;;42.92;21.05;;;;;;;;;;6047678;23;20054;-93
2022/02/02 10:20:31;;;;;;;50.13;26.67;;;;;;;;;;6071607;23;20003;-94
2022/02/02 10:22:58;;;;;;;35.03;19.48;;;;;;;;;;6071679;23;20311;-94
2022/02/02 10:25:24;;;;;;;28.98;17.05;;;;;;;;;;6071173;23;20026;-96
2022/02/02 10:27:51;;;;;;;31.80;16.48;;;;;;;;;;6047745;23;20014;-94
2022/02/02 10:30:19;;;;;;;27.50;16.48;;;;;;;;;;6209902;23;20292;-94
2022/02/02 10:32:48;;;;;;;32.58;16.17;;;;;;;;;;6221112;23;20028;-96
2022/02/02 10:35:36;;;;;;;37.08;19.48;;;;;;;;;;6220828;23;20009;-95
2022/02/02 10:38:08;;;;;;;41.03;20.58;;;;;;;;;;6194669;23;20297;-95
2022/02/02 10:40:47;;;;;;;38.22;20.27;;;;;;;;;;6222842;23;20024;-95
2022/02/02 10:43:20;;;;;;;39.75;20.92;;;;;;;;;;6222062;23;20115;-88
2022/02/02 10:45:46;;;;;;;30.10;16.92;;;;;;;;;;6194879;23;20016;-93
2022/02/02 10:48:23;;;;;;;44.40;23.02;;;;;;;;;;6195406;23;20008;-96
2022/02/02 10:51:00;;;;;;;38.40;21.30;;;;;;;;;;6221291;23;20055;-91
2022/02/02 10:53:41;;;;;;;34.15;16.15;;;;;;;;;;6220887;23;20039;-92
2022/02/02 10:56:19;;;;;;;28.08;14.93;;;;;;;;;;6220783;22;20016;-91
2022/02/02 11:06:50;;;;;;;27.73;14.73;;;;;;;;;;6073685;23;20152;-92
2022/02/02 11:09:17;;;;;;;31.00;16.02;;;;;;;;;;6073538;23;20026;-92
2022/02/02 11:11:45;;;;;;;26.80;14.73;;;;;;;;;;6049409;23;20035;-92
2022/02/02 11:14:22;;;;;;;35.67;19.65;;;;;;;;;;6073088;23;20007;-93
2022/02/02 11:16:51;;;;;;;34.10;19.33;;;;;;;;;;6073234;23;20021;-92
2022/02/02 11:19:38;;;;;;;35.38;20.75;;;;;;;;;;6073040;23;20003;-93
2022/02/02 11:22:30;;;;;;;35.10;18.98;;;;;;;;;;6073084;23;20362;-92
2022/02/02 11:24:58;;;;;;;38.55;20.83;;;;;;;;;;6073282;23;20011;-94
2022/02/02 11:27:50;;;;;;;33.00;17.25;;;;;;;;;;6095610;23;20022;-94
2022/02/02 11:30:25;;;;;;;36.65;20.10;;;;;;;;;;6075328;23;20018;-92
2022/02/02 11:33:01;;;;;;;33.17;18.50;;;;;;;;;;6101715;23;20010;-94
2022/02/02 11:38:07;;;;;;;24.17;15.52;;;;;;;;;;6103458;23;20010;-93
2022/02/02 11:40:41;;;;;;;24.83;14.02;;;;;;;;;;6101989;23;20003;-94
2022/02/02 11:43:13;;;;;;;40.65;14.05;;;;;;;;;;6138784;23;20052;-93
2022/02/02 11:45:42;;;;;;;31.35;15.75;;;;;;;;;;6222305;23;19997;-94
2022/02/02 11:48:19;;;;;;;29.38;15.75;;;;;;;;;;6222595;23;20047;-94
2022/02/02 11:50:52;;;;;;;33.50;15.80;;;;;;;;;;6196038;23;20008;-93
2022/02/02 11:53:18;;;;;;;;;;;;;;;;;;6222976;23;20099;-93
2022/02/02 11:55:45;;;;;;;38.78;17.48;;;;;;;;;;6222256;23;20196;-91
2022/02/02 11:58:18;;;;;;;45.97;16.80;;;;;;;;;;6196013;23;20078;-94
2022/02/02 12:00:53;;;;;;;40.58;14.50;;;;;;;;;;6195993;23;20048;-93
2022/02/02 12:03:45;;;;;;;38.70;15.75;;;;;;;;;;6222197;23;20011;-93
2022/02/02 12:19:00;;;;;;;32.55;16.00;;;;;;;;;;6161047;23;20057;-93
2022/02/02 12:49:21;;;;;;;33.38;16.80;;;;;;;;;;6024992;23;20103;-93
2022/02/02 12:57:08;;;;;;;20.30;11.07;;;;;;;;;;6065170;23;20026;-95
2022/02/02 13:02:17;;;;;;;19.65;11.50;;;;;;;;;;6110824;23;20366;-94
2022/02/02 13:04:46;;;;;;;21.20;11.10;;;;;;;;;;6100973;23;20041;-94
2022/02/02 13:07:15;;;;;;;25.63;13.20;;;;;;;;;;6101062;23;20107;-95
2022/02/02 13:09:43;;;;;;;25.30;13.25;;;;;;;;;;6102950;23;20012;-94
2022/02/02 13:12:22;;;;;;;25.35;12.00;;;;;;;;;;6221834;23;20004;-96
2022/02/02 13:18:01;;;;;;;24.48;13.32;;;;;;;;;;6197046;23;20074;-94
2022/02/02 13:20:37;;;;;;;24.00;12.65;;;;;;;;;;6195427;23;20004;-93
2022/02/02 13:23:14;;;;;;;24.02;12.70;;;;;;;;;;6195182;23;20001;-93
2022/02/02 13:25:43;;;;;;;29.30;15.70;;;;;;;;;;6194852;23;20004;-93
2022/02/02 13:28:10;;;;;;;29.13;15.18;;;;;;;;;;6221737;23;20071;-94
2022/02/02 13:30:41;;;;;;;25.10;14.05;;;;;;;;;;6195725;23;20240;-94
2022/02/02 13:33:20;;;;;;;29.07;15.77;;;;;;;;;;6221617;23;20040;-91
2022/02/02 13:36:00;;;;;;;38.78;20.70;;;;;;;;;;6221223;23;20427;-95
2022/02/02 13:38:44;;;;;;;35.65;17.35;;;;;;;;;;6195279;23;20001;-93
2022/02/02 13:44:26;;;;;;;32.42;15.25;;;;;;;;;;6221220;23;20055;-95
2022/02/02 13:47:22;;;;;;;39.10;17.35;;;;;;;;;;6194902;23;20011;-94
2022/02/02 13:50:00;;;;;;;61.78;23.92;;;;;;;;;;6222150;23;20123;-95
2022/02/02 13:52:33;;;;;;;53.20;21.80;;;;;;;;;;6221602;23;20284;-93
2022/02/02 13:55:14;;;;;;;86.45;29.70;;;;;;;;;;6194855;23;20005;-94
2022/02/02 13:58:07;;;;;;;53.97;21.33;;;;;;;;;;6221132;23;20056;-94
2022/02/02 14:00:49;;;;;;;;;;;;;;;;;;6195784;23;20035;-94
2022/02/02 14:06:19;;;;;;;23.55;11.23;;;;;;;;;;6221140;23;20015;-95
2022/02/02 14:25:36;;;;;;;12.05;5.82;;;;;;;;;;6100525;23;20007;-94
2022/02/02 14:31:14;;;;;;;72.57;33.20;;;;;;;;;;6100602;23;20082;-94
2022/02/02 14:33:42;;;;;;;100.82;35.25;;;;;;;;;;6100522;23;20046;-95
2022/02/02 14:36:10;;;;;;;60.15;24.55;;;;;;;;;;6101507;23;20020;-94
2022/02/02 14:38:46;;;;;;;31.90;13.85;;;;;;;;;;6102650;23;20002;-94
2022/02/02 14:44:05;;;;;;;31.33;14.60;;;;;;;;;;6112105;23;20015;-95
2022/02/02 14:49:08;;;;;;;75.70;24.13;;;;;;;;;;6185109;23;20012;-94
2022/02/02 15:05:49;;;;;;;47.75;22.52;;;;;;;;;;6131502;23;20020;-94
2022/02/02 15:27:21;;;;;;;19.75;10.90;;;;;;;;;;6046024;23;20049;-94
2022/02/02 15:32:15;;;;;;;13.63;7.40;;;;;;;;;;6053982;23;20019;-94
2022/02/02 15:34:46;;;;;;;24.23;10.15;;;;;;;;;;6065578;23;20127;-94
2022/02/02 15:39:51;;;;;;;15.80;6.47;;;;;;;;;;6082894;23;20015;-96
2022/02/02 15:42:29;;;;;;;15.65;6.63;;;;;;;;;;6049265;23;20279;-96
2022/02/02 15:54:43;;;;;;;13.77;5.57;;;;;;;;;;6049011;23;20032;-94
2022/02/02 15:58:57;;;;;;;5.70;3.13;;;;;;;;;;6073580;23;20037;-95
2022/02/02 16:03:56;;;;;;;3.72;1.63;;;;;;;;;;6232528;23;20008;-95
2022/02/02 16:06:25;;;;;;;4.93;2.10;;;;;;;;;;6221910;23;20001;-94
2022/02/02 16:09:00;;;;;;;9.25;4.10;;;;;;;;;;6222177;23;20001;-95
2022/02/02 16:11:30;;;;;;;13.68;6.88;;;;;;;;;;6222426;23;20031;-95
2022/02/02 16:14:01;;;;;;;9.40;5.43;;;;;;;;;;6195664;23;20091;-94
2022/02/02 16:16:45;;;;;;;11.13;5.65;;;;;;;;;;6222196;23;20000;-92
2022/02/02 16:19:23;;;;;;;10.57;6.20;;;;;;;;;;6222921;23;20016;-90
2022/02/02 16:25:10;;;;;;;27.70;11.95;;;;;;;;;;6221899;23;20019;-93
2022/02/02 16:38:15;;;;;;;12.68;6.63;;;;;;;;;;6222724;23;20375;-94
2022/02/02 16:40:43;;;;;;;9.88;4.97;;;;;;;;;;6223612;23;19997;-92
2022/02/02 16:43:14;;;;;;;15.75;6.13;;;;;;;;;;6222767;23;19997;-90
2022/02/02 16:45:46;;;;;;;12.80;5.32;;;;;;;;;;6223134;23;20004;-95
2022/02/02 16:48:12;;;;;;;16.98;6.45;;;;;;;;;;6221842;23;20001;-95
2022/02/02 16:50:41;;;;;;;14.45;6.30;;;;;;;;;;6196185;23;20008;-88
2022/02/02 16:53:15;;;;;;;12.60;6.13;;;;;;;;;;6221269;23;20011;-86
2022/02/02 16:55:52;;;;;;;12.25;5.75;;;;;;;;;;6195126;23;20019;-87
2022/02/02 17:41:31;;;;;;;;;;;;;;;;;;;;;
2022/02/02 18:13:46;;;;;;;19.23;8.00;;;;;;;;;;6129735;23;20049;-90
2022/02/02 18:21:10;;;;;;;13.40;6.60;;;;;;;;;;6220831;23;20057;-91
2022/02/02 18:24:02;;;;;;;13.98;6.65;;;;;;;;;;6194739;23;20013;-91
2022/02/02 18:26:32;;;;;;;16.23;8.35;;;;;;;;;;6219809;23;20028;-90
2022/02/02 18:29:06;;;;;;;15.27;6.40;;;;;;;;;;6221322;23;20260;-90
2022/02/02 18:31:45;;;;;;;13.02;6.25;;;;;;;;;;6194371;23;20013;-90
2022/02/02 20:04:09;;;;;;;40.00;16.90;;;;;;;;;;6072939;23;20021;-91
2022/02/02 20:06:41;;;;;;;19.80;7.38;;;;;;;;;;6049317;23;20031;-91
2022/02/02 20:11:42;;;;;;;24.02;9.85;;;;;;;;;;6232490;23;20012;-91
2022/02/02 20:14:08;;;;;;;31.95;15.18;;;;;;;;;;6195795;23;20359;-92
2022/02/02 20:16:34;;;;;;;24.30;11.77;;;;;;;;;;6222602;23;20245;-91
2022/02/02 20:19:04;;;;;;;26.27;14.07;;;;;;;;;;6221950;23;20084;-92
2022/02/02 20:21:34;;;;;;;21.23;10.60;;;;;;;;;;6195658;23;20005;-91
2022/02/02 20:24:03;;;;;;;21.98;9.88;;;;;;;;;;6222526;23;20004;-92
2022/02/02 20:26:32;;;;;;;15.60;6.40;;;;;;;;;;6222109;22;20056;-91
2022/02/02 20:29:07;;;;;;;13.52;6.32;;;;;;;;;;6222329;23;20020;-91
2022/02/02 20:31:34;;;;;;;9.13;3.70;;;;;;;;;;6222459;23;20150;-91
2022/02/02 20:34:00;;;;;;;10.20;4.63;;;;;;;;;;6221812;23;20008;-92
2022/02/02 20:36:26;;;;;;;9.88;3.67;;;;;;;;;;6195572;23;20386;-92
2022/02/02 20:38:53;;;;;;;12.00;5.35;;;;;;;;;;6222086;23;20000;-91
2022/02/02 20:41:19;;;;;;;12.35;4.70;;;;;;;;;;6195673;23;20012;-91
2022/02/02 20:43:52;;;;;;;10.30;4.32;;;;;;;;;;6221960;23;20000;-90
2022/02/02 21:06:05;;;;;;;14.60;4.38;;;;;;;;;;6016630;23;20008;-91
2022/02/02 21:08:47;;;;;;;13.20;5.68;;;;;;;;;;5991718;23;20007;-91
2022/02/02 21:11:21;;;;;;;12.90;5.28;;;;;;;;;;6014884;23;20004;-91
2022/02/02 21:13:53;;;;;;;10.73;4.93;;;;;;;;;;5991469;23;20007;-90
2022/02/02 21:16:27;;;;;;;18.60;5.15;;;;;;;;;;5991904;23;20030;-90
2022/02/02 21:18:55;;;;;;;11.05;4.60;;;;;;;;;;5991543;23;20035;-91
2022/02/02 21:21:34;;;;;;;10.02;4.68;;;;;;;;;;5991595;23;20004;-91
2022/02/02 21:27:15;;;;;;;10.15;4.70;;;;;;;;;;6133787;23;20033;-92
2022/02/02 21:29:37;;;;;;;10.40;4.43;;;;;;;;;;6130070;23;20025;-91
2022/02/02 21:32:03;;;;;;;11.60;5.03;;;;;;;;;;6130221;23;20301;-92
2022/02/02 21:34:29;;;;;;;12.20;5.00;;;;;;;;;;6130106;23;20086;-92
2022/02/02 21:37:00;;;;;;;9.75;3.55;;;;;;;;;;6130124;23;20002;-91
2022/02/02 21:39:28;;;;;;;8.35;4.47;;;;;;;;;;6130152;23;20003;-91
2022/02/02 21:41:56;;;;;;;19.60;6.30;;;;;;;;;;6141376;23;20021;-91
2022/02/02 21:44:23;;;;;;;14.30;5.03;;;;;;;;;;6221152;23;20000;-91
2022/02/02 21:46:49;;;;;;;9.07;4.00;;;;;;;;;;6194689;23;20005;-92
2022/02/02 21:49:20;;;;;;;9.70;3.58;;;;;;;;;;6221353;23;20016;-91
2022/02/02 21:51:59;;;;;;;7.53;3.08;;;;;;;;;;6209576;23;20001;-92
2022/02/02 21:54:25;;;;;;;10.00;3.05;;;;;;;;;;6195306;23;20023;-91
2022/02/02 21:56:51;;;;;;;9.95;3.95;;;;;;;;;;6221463;23;20000;-91
2022/02/02 21:59:17;;;;;;;6.75;2.70;;;;;;;;;;6220387;23;20012;-91
2022/02/02 22:01:44;;;;;;;10.02;3.40;;;;;;;;;;6220959;23;20085;-91
2022/02/02 22:04:10;;;;;;;7.88;2.65;;;;;;;;;;6221597;23;20012;-90
2022/02/02 22:06:46;;;;;;;7.88;3.65;;;;;;;;;;6195215;23;20012;-90
2022/02/02 22:09:12;;;;;;;7.28;2.85;;;;;;;;;;6220958;23;20008;-90
2022/02/02 22:11:38;;;;;;;9.35;3.63;;;;;;;;;;6221465;23;20028;-91
2022/02/02 22:14:10;;;;;;;23.05;11.93;;;;;;;;;;6194922;23;20373;-88
2022/02/02 22:16:38;;;;;;;12.88;6.35;;;;;;;;;;6221077;23;20003;-89
2022/02/02 22:19:05;;;;;;;13.43;6.38;;;;;;;;;;6221014;23;20008;-88
2022/02/02 22:21:50;;;;;;;15.30;6.15;;;;;;;;;;6221157;23;20001;-89
2022/02/02 22:24:16;;;;;;;13.38;5.03;;;;;;;;;;6220905;23;20015;-90
2022/02/02 22:26:43;;;;;;;16.77;6.63;;;;;;;;;;6194509;23;20016;-89
2022/02/02 22:29:09;;;;;;;18.48;7.45;;;;;;;;;;6220575;23;20004;-89
2022/02/02 22:31:35;;;;;;;8.77;4.85;;;;;;;;;;6221640;23;20004;-90
2022/02/02 22:34:01;;;;;;;12.55;4.32;;;;;;;;;;6194729;23;20058;-90
2022/02/02 22:42:35;;;;;;;7.05;3.42;;;;;;;;;;6221189;23;20007;-90
2022/02/02 22:45:04;;;;;;;6.80;3.45;;;;;;;;;;6221410;23;20005;-90
2022/02/02 22:47:31;;;;;;;8.52;3.83;;;;;;;;;;6220986;23;20005;-90
2022/02/02 22:49:58;;;;;;;9.55;3.90;;;;;;;;;;6194929;23;20008;-90
2022/02/02 22:52:24;;;;;;;12.55;3.80;;;;;;;;;;6221294;23;20291;-89
2022/02/02 22:54:51;;;;;;;8.57;3.90;;;;;;;;;;6220908;23;20104;-90
2022/02/02 22:57:17;;;;;;;12.18;3.70;;;;;;;;;;6221640;23;20004;-90
2022/02/02 22:59:48;;;;;;;9.07;3.65;;;;;;;;;;6223309;23;20411;-90
2022/02/02 23:02:41;;;;;;;10.50;4.10;;;;;;;;;;6196648;23;20007;-90
2022/02/02 23:05:06;;;;;;;11.07;3.70;;;;;;;;;;6222504;23;20008;-90
2022/02/02 23:07:32;;;;;;;6.55;3.08;;;;;;;;;;6196719;23;20005;-89
2022/02/02 23:09:59;;;;;;;8.45;2.70;;;;;;;;;;6222829;23;20012;-89
2022/02/02 23:12:27;;;;;;;8.50;2.85;;;;;;;;;;6222793;23;20046;-91
2022/02/02 23:14:55;;;;;;;6.25;2.42;;;;;;;;;;6222799;23;20016;-90
2022/02/02 23:17:22;;;;;;;8.05;3.22;;;;;;;;;;6223067;23;20229;-88
2022/02/02 23:19:50;;;;;;;8.15;3.08;;;;;;;;;;6222614;23;20024;-89
2022/02/02 23:25:21;;;;;;;6.65;2.60;;;;;;;;;;6222332;23;20004;-89
2022/02/02 23:27:48;;;;;;;7.18;2.22;;;;;;;;;;6222199;23;20039;-88
2022/02/02 23:30:16;;;;;;;6.43;2.30;;;;;;;;;;6196077;23;20095;-88
2022/02/02 23:32:43;;;;;;;7.60;2.13;;;;;;;;;;6222334;23;19996;-88
2022/02/02 23:35:09;;;;;;;5.53;2.40;;;;;;;;;;6222447;23;20303;-89
2022/02/02 23:37:54;;;;;;;7.93;2.47;;;;;;;;;;6222958;23;20008;-88
2022/02/02 23:40:20;;;;;;;8.02;1.92;;;;;;;;;;6222414;23;19997;-90
2022/02/02 23:42:47;;;;;;;5.70;2.33;;;;;;;;;;6196213;23;20415;-89
2022/02/02 23:45:13;;;;;;;4.05;1.73;;;;;;;;;;6195387;23;20099;-90
2022/02/02 23:47:41;;;;;;;11.75;2.28;;;;;;;;;;6222180;23;20005;-89
2022/02/02 23:50:11;;;;;;;9.07;2.28;;;;;;;;;;6222362;23;20012;-90
2022/02/02 23:52:45;;;;;;;7.28;2.30;;;;;;;;;;6222719;23;20004;-89
2022/02/02 23:55:16;;;;;;;8.95;2.28;;;;;;;;;;6195985;23;20005;-90
2022/02/02 23:57:58;;;;;;;7.22;2.08;;;;;;;;;;6222362;23;19997;-89
